createdAt,value
2019-05-05T00:01:55.373Z,64.49
2019-05-05T00:04:46.956Z,63.76
2019-05-05T00:07:22.013Z,64.26
2019-05-05T00:09:51.729Z,64.46
2019-05-05T00:12:50.038Z,65.80
2019-05-05T00:15:41.827Z,64.86
2019-05-05T00:18:11.723Z,64.68
2019-05-05T00:20:40.378Z,64.63
2019-05-05T00:23:09.742Z,63.81
2019-05-05T00:25:37.890Z,63.81
2019-05-05T00:28:07.461Z,65.41
2019-05-05T00:30:36.721Z,65.37
2019-05-05T00:33:06.037Z,65.15
2019-05-05T00:35:35.329Z,65.78
2019-05-05T00:38:05.676Z,67.12
2019-05-05T00:40:35.262Z,65.79
2019-05-05T00:43:05.367Z,65.74
2019-05-05T00:45:36.295Z,65.56
2019-05-05T00:48:15.260Z,65.56
2019-05-05T00:50:44.991Z,65.11
2019-05-05T00:53:14.692Z,66.13
2019-05-05T00:55:44.603Z,65.49
2019-05-05T00:58:14.562Z,65.49
2019-05-05T01:00:49.899Z,65.46
2019-05-05T01:03:21.080Z,66.27
2019-05-05T01:05:58.491Z,66.05
2019-05-05T01:08:28.622Z,66.34
2019-05-05T01:10:58.632Z,67.14
2019-05-05T01:13:27.882Z,67.14
2019-05-05T01:15:57.168Z,66.83
2019-05-05T01:18:27.767Z,66.12
2019-05-05T01:20:56.916Z,67.02
2019-05-05T01:23:26.974Z,66.39
2019-05-05T01:25:56.323Z,66.34
2019-05-05T01:28:26.047Z,66.41
2019-05-05T01:30:59.165Z,66.92
2019-05-05T01:33:44.894Z,67.38
2019-05-05T01:36:16.506Z,66.98
2019-05-05T01:41:39.333Z,68.30
2019-05-05T01:44:08.394Z,68.15
2019-05-05T01:46:37.386Z,68.18
2019-05-05T01:49:06.736Z,68.09
2019-05-05T01:51:35.575Z,68.09
2019-05-05T01:54:05.178Z,69.07
2019-05-05T01:56:36.559Z,69.84
2019-05-05T01:59:05.721Z,71.08
2019-05-05T02:01:35.227Z,69.55
2019-05-05T02:04:05.735Z,70.58
2019-05-05T02:06:38.557Z,69.36
2019-05-05T02:09:09.766Z,68.87
2019-05-05T02:11:40.309Z,68.28
2019-05-05T02:14:09.420Z,68.79
2019-05-05T02:16:38.529Z,68.45
2019-05-05T02:19:07.589Z,68.45
2019-05-05T02:21:36.574Z,68.18
2019-05-05T02:24:06.129Z,69.32
2019-05-05T02:26:35.739Z,69.32
2019-05-05T02:29:16.585Z,68.20
2019-05-05T02:32:06.201Z,66.97
2019-05-05T02:34:37.781Z,66.97
2019-05-05T02:37:05.862Z,67.74
2019-05-05T02:39:39.286Z,67.41
2019-05-05T02:42:07.401Z,66.89
2019-05-05T02:44:39.060Z,67.23
2019-05-05T02:47:25.660Z,65.88
2019-05-05T02:49:59.293Z,66.58
2019-05-05T02:52:30.432Z,66.50
2019-05-05T02:55:00.886Z,66.29
2019-05-05T02:57:29.941Z,65.69
2019-05-05T03:00:13.402Z,64.98
2019-05-05T03:02:43.442Z,65.47
2019-05-05T03:05:14.312Z,65.58
2019-05-05T03:07:44.858Z,64.92
2019-05-05T03:10:14.607Z,64.41
2019-05-05T03:12:44.418Z,64.90
2019-05-05T03:15:34.000Z,64.90
2019-05-05T03:18:04.156Z,66.39
2019-05-05T03:20:34.336Z,65.76
2019-05-05T03:23:04.231Z,65.18
2019-05-05T03:25:33.903Z,65.35
2019-05-05T03:28:04.421Z,65.61
2019-05-05T03:30:35.628Z,67.87
2019-05-05T03:33:05.693Z,67.87
2019-05-05T03:35:35.587Z,66.40
2019-05-05T03:38:04.965Z,66.58
2019-05-05T03:40:36.611Z,66.58
2019-05-05T03:43:12.141Z,66.15
2019-05-05T03:45:45.563Z,66.15
2019-05-05T03:48:14.944Z,64.78
2019-05-05T03:50:44.626Z,64.78
2019-05-05T03:53:14.030Z,64.85
2019-05-05T03:55:45.442Z,64.41
2019-05-05T03:58:15.749Z,64.17
2019-05-05T04:01:37.292Z,64.17
2019-05-05T04:04:25.897Z,67.18
2019-05-05T04:06:55.605Z,65.82
2019-05-05T04:09:24.934Z,64.20
2019-05-05T04:11:54.171Z,64.20
2019-05-05T04:14:25.001Z,65.42
2019-05-05T04:17:14.156Z,66.14
2019-05-05T04:19:47.426Z,65.43
2019-05-05T04:22:16.422Z,64.51
2019-05-05T04:24:45.504Z,65.26
2019-05-05T04:27:14.827Z,63.06
2019-05-05T04:29:44.134Z,63.06
2019-05-05T04:32:14.031Z,64.54
2019-05-05T04:34:44.047Z,63.84
2019-05-05T04:37:14.980Z,63.16
2019-05-05T04:39:44.643Z,63.12
2019-05-05T04:42:14.081Z,65.14
2019-05-05T04:44:46.490Z,63.15
2019-05-05T04:47:23.666Z,62.25
2019-05-05T04:49:59.002Z,62.50
2019-05-05T04:52:28.571Z,62.58
2019-05-05T04:54:57.584Z,62.74
2019-05-05T04:57:26.715Z,62.92
2019-05-05T04:59:55.045Z,62.92
2019-05-05T05:02:35.569Z,62.29
2019-05-05T05:05:10.471Z,62.36
2019-05-05T05:07:39.921Z,61.33
2019-05-05T05:10:09.281Z,61.27
2019-05-05T05:12:38.533Z,62.26
2019-05-05T05:15:07.699Z,61.70
2019-05-05T05:17:44.748Z,60.42
2019-05-05T05:20:14.121Z,60.68
2019-05-05T05:22:43.993Z,60.69
2019-05-05T05:25:13.678Z,60.90
2019-05-05T05:27:44.325Z,62.75
2019-05-05T05:30:13.886Z,63.16
2019-05-05T05:32:44.549Z,64.01
2019-05-05T05:35:14.076Z,63.63
2019-05-05T05:37:44.726Z,62.32
2019-05-05T05:40:20.308Z,64.24
2019-05-05T05:42:49.725Z,63.66
2019-05-05T05:45:31.665Z,62.93
2019-05-05T05:48:11.436Z,62.40
2019-05-05T05:50:47.312Z,61.65
2019-05-05T05:53:16.264Z,61.56
2019-05-05T05:55:45.050Z,61.56
2019-05-05T05:58:14.207Z,60.54
2019-05-05T06:00:44.221Z,60.38
2019-05-05T06:03:14.064Z,60.12
2019-05-05T06:05:43.720Z,58.89
2019-05-05T06:08:14.118Z,57.97
2019-05-05T06:10:44.247Z,56.39
2019-05-05T06:13:16.871Z,60.34
2019-05-05T06:15:45.720Z,60.34
2019-05-05T06:18:14.056Z,59.24
2019-05-05T06:20:44.559Z,57.31
2019-05-05T06:23:15.707Z,56.58
2019-05-05T06:25:44.757Z,56.58
2019-05-05T06:28:16.009Z,56.67
2019-05-05T06:30:45.296Z,56.16
2019-05-05T06:33:14.981Z,54.61
2019-05-05T06:35:44.404Z,54.94
2019-05-05T06:38:13.770Z,55.60
2019-05-05T06:40:53.733Z,57.03
2019-05-05T06:43:31.658Z,57.85
2019-05-05T06:46:01.694Z,59.41
2019-05-05T06:48:31.123Z,59.46
2019-05-05T06:51:00.513Z,58.80
2019-05-05T06:53:29.471Z,55.90
2019-05-05T06:55:58.719Z,53.93
2019-05-05T06:58:27.034Z,53.93
2019-05-05T07:00:56.170Z,53.13
2019-05-05T07:03:29.664Z,52.82
2019-05-05T07:05:58.249Z,53.42
2019-05-05T07:08:26.843Z,55.87
2019-05-05T07:10:55.701Z,55.09
2019-05-05T07:13:24.475Z,55.78
2019-05-05T07:15:54.237Z,54.12
2019-05-05T07:18:24.664Z,55.61
2019-05-05T07:20:54.488Z,55.70
2019-05-05T07:23:24.661Z,55.09
2019-05-05T07:25:54.940Z,55.45
2019-05-05T07:28:24.060Z,54.09
2019-05-05T07:30:54.602Z,53.35
2019-05-05T07:33:23.929Z,51.60
2019-05-05T07:36:06.148Z,52.83
2019-05-05T07:38:35.429Z,53.85
2019-05-05T07:41:04.576Z,51.34
2019-05-05T07:43:34.525Z,50.85
2019-05-05T07:47:23.803Z,47.98
2019-05-05T07:49:53.701Z,46.57
2019-05-05T07:52:23.780Z,42.46
2019-05-05T07:54:54.954Z,41.45
2019-05-05T07:57:24.041Z,40.94
2019-05-05T07:59:54.056Z,39.92
2019-05-05T08:02:23.714Z,39.46
2019-05-05T08:04:54.471Z,40.03
2019-05-05T08:07:24.750Z,40.97
2019-05-05T08:09:53.940Z,40.97
2019-05-05T08:12:24.765Z,40.86
2019-05-05T08:14:54.091Z,40.09
2019-05-05T08:17:45.695Z,40.32
2019-05-05T08:20:20.221Z,38.14
2019-05-05T08:22:50.010Z,38.14
2019-05-05T08:25:37.520Z,38.06
2019-05-05T08:28:14.718Z,37.66
2019-05-05T08:31:05.317Z,37.66
2019-05-05T08:33:34.734Z,36.27
2019-05-05T08:36:04.598Z,35.72
2019-05-05T08:38:34.836Z,38.79
2019-05-05T08:41:04.627Z,40.39
2019-05-05T08:43:34.715Z,43.13
2019-05-05T08:46:05.867Z,40.37
2019-05-05T08:48:35.002Z,39.80
2019-05-05T08:51:04.985Z,39.54
2019-05-05T08:53:42.506Z,37.96
2019-05-05T08:56:05.289Z,34.89
2019-05-05T08:58:34.770Z,36.80
2019-05-05T09:01:04.524Z,36.06
2019-05-05T09:03:33.877Z,30.62
2019-05-05T09:06:04.691Z,30.62
2019-05-05T09:08:34.718Z,27.86
2019-05-05T09:11:04.863Z,25.95
2019-05-05T09:13:34.382Z,29.11
2019-05-05T09:16:04.044Z,32.08
2019-05-05T09:18:35.397Z,29.44
2019-05-05T09:21:05.761Z,24.61
2019-05-05T09:23:37.136Z,22.61
2019-05-05T09:26:19.723Z,22.64
2019-05-05T09:29:08.409Z,21.00
2019-05-05T09:31:37.811Z,21.52
2019-05-05T09:34:07.447Z,26.73
2019-05-05T09:36:37.303Z,24.79
2019-05-05T09:39:07.104Z,24.79
2019-05-05T09:41:36.491Z,23.80
2019-05-05T09:44:05.415Z,21.26
2019-05-05T09:46:35.072Z,21.97
2019-05-05T09:49:04.773Z,24.22
2019-05-05T09:51:34.840Z,25.10
2019-05-05T09:54:11.932Z,25.21
2019-05-05T09:56:35.908Z,22.82
2019-05-05T09:59:04.995Z,21.21
2019-05-05T10:01:34.317Z,19.56
2019-05-05T10:04:09.675Z,21.13
2019-05-05T10:06:40.476Z,24.96
2019-05-05T10:09:13.613Z,28.64
2019-05-05T10:11:44.816Z,22.47
2019-05-05T10:14:14.453Z,27.96
2019-05-05T10:16:43.301Z,26.83
2019-05-05T10:19:13.936Z,24.57
2019-05-05T10:21:44.357Z,21.94
2019-05-05T10:24:28.622Z,25.13
2019-05-05T10:26:54.364Z,25.64
2019-05-05T10:29:23.797Z,30.84
2019-05-05T10:31:53.930Z,30.84
2019-05-05T10:34:24.183Z,32.79
2019-05-05T10:36:53.649Z,30.11
2019-05-05T10:39:37.405Z,27.25
2019-05-05T10:42:06.715Z,27.25
2019-05-05T10:44:36.001Z,28.63
2019-05-05T10:47:05.302Z,30.53
2019-05-05T10:49:34.299Z,32.77
2019-05-05T10:52:03.984Z,32.72
2019-05-05T10:54:41.607Z,34.40
2019-05-05T10:57:05.613Z,32.06
2019-05-05T10:59:34.612Z,29.34
2019-05-05T11:02:04.859Z,26.19
2019-05-05T11:04:34.908Z,25.93
2019-05-05T11:07:04.475Z,25.12
2019-05-05T11:09:34.317Z,24.33
2019-05-05T11:12:03.690Z,23.74
2019-05-05T11:14:33.659Z,26.71
2019-05-05T11:17:04.194Z,27.78
2019-05-05T11:19:33.869Z,26.19
2019-05-05T11:22:03.097Z,28.76
2019-05-05T11:24:34.469Z,29.06
2019-05-05T11:27:04.465Z,27.81
2019-05-05T11:29:36.830Z,26.21
2019-05-05T11:32:15.292Z,26.21
2019-05-05T11:34:44.555Z,26.76
2019-05-05T11:37:16.892Z,26.34
2019-05-05T11:39:46.887Z,27.28
2019-05-05T11:42:17.475Z,29.80
2019-05-05T11:44:47.551Z,29.32
2019-05-05T11:47:16.032Z,27.08
2019-05-05T11:49:45.141Z,28.51
2019-05-05T11:52:14.028Z,28.54
2019-05-05T11:54:43.894Z,29.55
2019-05-05T11:57:13.557Z,31.00
2019-05-05T11:59:41.929Z,31.15
2019-05-05T12:02:11.066Z,31.88
2019-05-05T12:04:40.117Z,33.24
2019-05-05T12:07:09.006Z,33.02
2019-05-05T12:09:49.449Z,33.33
2019-05-05T12:12:18.699Z,32.73
2019-05-05T12:14:48.256Z,32.95
2019-05-05T12:17:33.758Z,35.43
2019-05-05T12:20:05.961Z,34.56
2019-05-05T12:22:34.938Z,40.19
2019-05-05T12:25:08.575Z,43.38
2019-05-05T12:27:59.819Z,49.60
2019-05-05T12:30:29.132Z,49.60
2019-05-05T12:32:59.048Z,49.54
2019-05-05T12:35:28.475Z,49.32
2019-05-05T12:38:01.174Z,47.36
2019-05-05T12:40:29.941Z,42.79
2019-05-05T12:42:59.133Z,38.75
2019-05-05T12:45:30.933Z,32.38
2019-05-05T12:48:27.024Z,27.39
2019-05-05T12:50:58.695Z,27.23
2019-05-05T12:53:28.529Z,28.57
2019-05-05T12:55:57.604Z,26.06
2019-05-05T12:58:27.140Z,24.06
2019-05-05T13:01:06.512Z,24.06
2019-05-05T13:03:36.977Z,22.64
2019-05-05T13:06:06.472Z,22.64
2019-05-05T13:08:35.949Z,23.47
2019-05-05T13:11:05.650Z,25.70
2019-05-05T13:13:34.554Z,27.69
2019-05-05T13:16:04.400Z,25.85
2019-05-05T13:18:34.040Z,27.25
2019-05-05T13:21:14.057Z,25.95
2019-05-05T13:24:04.399Z,24.49
2019-05-05T13:26:46.466Z,24.89
2019-05-05T13:29:15.907Z,24.40
2019-05-05T13:31:46.118Z,24.40
2019-05-05T13:34:15.542Z,24.43
2019-05-05T13:36:44.739Z,28.39
2019-05-05T13:39:14.411Z,28.39
2019-05-05T13:41:44.898Z,28.95
2019-05-05T13:44:24.136Z,28.32
2019-05-05T13:46:54.634Z,25.40
2019-05-05T13:49:32.902Z,23.96
2019-05-05T13:52:04.662Z,26.25
2019-05-05T13:54:33.987Z,25.26
2019-05-05T13:57:03.867Z,25.17
2019-05-05T13:59:33.934Z,25.66
2019-05-05T14:02:03.566Z,24.34
2019-05-05T14:04:31.861Z,25.18
2019-05-05T14:07:00.958Z,27.23
2019-05-05T14:09:30.060Z,27.56
2019-05-05T14:11:59.105Z,30.35
2019-05-05T14:14:28.032Z,33.79
2019-05-05T14:16:57.398Z,34.83
2019-05-05T14:19:26.447Z,31.36
2019-05-05T14:21:55.459Z,32.20
2019-05-05T14:24:44.349Z,31.67
2019-05-05T14:27:14.464Z,31.35
2019-05-05T14:29:52.610Z,29.56
2019-05-05T14:32:24.000Z,29.11
2019-05-05T14:35:00.871Z,29.11
2019-05-05T14:37:37.494Z,28.41
2019-05-05T14:40:07.630Z,29.65
2019-05-05T14:42:36.686Z,29.09
2019-05-05T14:45:06.064Z,29.49
2019-05-05T14:47:36.413Z,28.36
2019-05-05T14:50:06.626Z,30.64
2019-05-05T14:52:34.963Z,30.32
2019-05-05T14:55:05.618Z,28.68
2019-05-05T14:57:34.266Z,28.29
2019-05-05T15:00:04.822Z,29.27
2019-05-05T15:02:34.803Z,28.52
2019-05-05T15:05:24.428Z,25.29
2019-05-05T15:08:13.591Z,26.41
2019-05-05T15:10:47.635Z,26.38
2019-05-05T15:13:17.118Z,25.13
2019-05-05T15:15:46.517Z,25.13
2019-05-05T15:18:15.945Z,24.40
2019-05-05T15:20:45.120Z,24.40
2019-05-05T15:23:13.963Z,24.48
2019-05-05T15:25:44.607Z,24.08
2019-05-05T15:28:13.973Z,23.74
2019-05-05T15:30:44.090Z,23.44
2019-05-05T15:33:14.758Z,23.48
2019-05-05T15:35:46.500Z,21.94
2019-05-05T15:38:15.293Z,21.79
2019-05-05T15:40:47.780Z,21.74
2019-05-05T15:43:15.653Z,22.34
2019-05-05T15:45:45.168Z,22.05
2019-05-05T15:48:14.591Z,22.05
2019-05-05T15:50:44.289Z,23.17
2019-05-05T15:53:14.377Z,23.17
2019-05-05T15:55:43.897Z,22.40
2019-05-05T15:58:14.181Z,26.69
2019-05-05T16:00:44.341Z,26.22
2019-05-05T16:03:13.729Z,25.92
2019-05-05T16:05:43.650Z,25.95
2019-05-05T16:08:14.098Z,26.40
2019-05-05T16:10:46.178Z,26.27
2019-05-05T16:13:14.668Z,25.47
2019-05-05T16:16:05.241Z,25.65
2019-05-05T16:18:48.370Z,25.65
2019-05-05T16:21:35.842Z,26.20
2019-05-05T16:24:13.982Z,26.20
2019-05-05T16:26:43.547Z,26.75
2019-05-05T16:29:14.805Z,27.01
2019-05-05T16:31:45.491Z,27.01
2019-05-05T16:34:14.829Z,27.01
2019-05-05T16:36:44.467Z,27.82
2019-05-05T16:39:16.286Z,27.87
2019-05-05T16:41:44.396Z,27.87
2019-05-05T16:44:14.133Z,26.89
2019-05-05T16:46:44.958Z,26.97
2019-05-05T16:49:15.299Z,26.97
2019-05-05T16:51:51.440Z,27.17
2019-05-05T16:54:26.970Z,26.85
2019-05-05T16:56:56.762Z,26.34
2019-05-05T16:59:26.031Z,26.28
2019-05-05T17:01:56.504Z,25.00
2019-05-05T17:04:26.130Z,25.45
2019-05-05T17:06:56.033Z,25.91
2019-05-05T17:09:26.522Z,25.90
2019-05-05T17:12:08.466Z,26.51
2019-05-05T17:14:57.824Z,27.02
2019-05-05T17:17:38.063Z,27.26
2019-05-05T17:20:13.870Z,27.84
2019-05-05T17:23:04.536Z,28.33
2019-05-05T17:25:34.291Z,28.01
2019-05-05T17:28:04.560Z,27.78
2019-05-05T17:30:34.154Z,28.03
2019-05-05T17:33:03.867Z,28.91
2019-05-05T17:35:34.153Z,29.26
2019-05-05T17:38:13.734Z,30.25
2019-05-05T17:41:03.687Z,30.15
2019-05-05T17:43:55.417Z,30.84
2019-05-05T17:46:47.515Z,30.97
2019-05-05T17:49:27.645Z,30.94
2019-05-05T17:52:04.026Z,30.96
2019-05-05T17:54:35.986Z,31.40
2019-05-05T17:57:05.169Z,32.02
2019-05-05T17:59:34.628Z,32.38
2019-05-05T18:02:04.805Z,32.24
2019-05-05T18:04:34.178Z,32.58
2019-05-05T18:07:31.808Z,32.62
2019-05-05T18:10:26.408Z,33.24
2019-05-05T18:13:24.945Z,33.33
2019-05-05T18:15:57.920Z,33.58
2019-05-05T18:18:27.454Z,33.67
2019-05-05T18:20:56.742Z,34.40
2019-05-05T18:23:25.952Z,34.50
2019-05-05T18:25:56.056Z,35.10
2019-05-05T18:28:25.640Z,36.17
2019-05-05T18:30:54.614Z,38.27
2019-05-05T18:33:24.679Z,38.27
2019-05-05T18:35:54.177Z,38.79
2019-05-05T18:38:23.959Z,39.70
2019-05-05T18:40:55.151Z,40.23
2019-05-05T18:43:48.481Z,40.85
2019-05-05T18:46:18.050Z,42.37
2019-05-05T18:48:47.308Z,42.37
2019-05-05T18:51:18.153Z,43.88
2019-05-05T18:53:48.056Z,43.83
2019-05-05T18:56:17.483Z,44.09
2019-05-05T18:58:54.347Z,45.37
2019-05-05T19:01:42.028Z,44.71
2019-05-05T19:04:26.458Z,45.75
2019-05-05T19:07:10.203Z,46.09
2019-05-05T19:09:51.033Z,46.83
2019-05-05T19:12:11.295Z,47.31
2019-05-05T19:14:40.629Z,47.11
2019-05-05T19:17:09.573Z,48.04
2019-05-05T19:19:41.725Z,49.08
2019-05-05T19:22:13.820Z,49.08
2019-05-05T19:24:44.061Z,48.07
2019-05-05T19:27:14.214Z,48.59
2019-05-05T19:31:20.576Z,49.34
2019-05-05T19:33:49.762Z,47.91
2019-05-05T19:36:18.748Z,47.91
2019-05-05T19:38:47.882Z,47.45
2019-05-05T19:41:17.303Z,49.47
2019-05-05T19:43:54.833Z,50.90
2019-05-05T19:46:35.542Z,51.10
2019-05-05T19:49:14.818Z,50.75
2019-05-05T19:51:44.646Z,50.75
2019-05-05T19:54:15.065Z,51.55
2019-05-05T19:56:45.251Z,52.23
2019-05-05T19:59:16.362Z,52.55
2019-05-05T20:01:45.475Z,52.51
2019-05-05T20:04:15.153Z,54.76
2019-05-05T20:06:44.617Z,54.76
2019-05-05T20:09:14.491Z,54.60
2019-05-05T20:11:43.913Z,54.85
2019-05-05T20:14:15.085Z,53.38
2019-05-05T20:17:04.586Z,53.97
2019-05-05T20:19:44.867Z,54.46
2019-05-05T20:22:15.307Z,55.30
2019-05-05T20:24:44.832Z,54.94
2019-05-05T20:27:14.438Z,54.83
2019-05-05T20:29:43.978Z,54.72
2019-05-05T20:32:14.526Z,54.86
2019-05-05T20:34:55.836Z,54.33
2019-05-05T20:37:31.037Z,55.31
2019-05-05T20:40:00.767Z,56.73
2019-05-05T20:42:28.945Z,56.92
2019-05-05T20:44:58.116Z,56.33
2019-05-05T20:47:27.340Z,55.59
2019-05-05T20:49:56.581Z,56.23
2019-05-05T20:52:25.586Z,57.99
2019-05-05T20:54:54.771Z,57.99
2019-05-05T20:57:24.299Z,58.10
2019-05-05T20:59:53.572Z,58.02
2019-05-05T21:02:24.326Z,57.98
2019-05-05T21:04:54.106Z,57.51
2019-05-05T21:07:26.459Z,57.51
2019-05-05T21:09:54.461Z,58.00
2019-05-05T21:12:24.614Z,59.03
2019-05-05T21:14:54.055Z,59.15
2019-05-05T21:17:24.221Z,59.69
2019-05-05T21:19:53.115Z,59.80
2019-05-05T21:22:38.608Z,59.72
2019-05-05T21:25:23.917Z,59.98
2019-05-05T21:27:53.121Z,60.13
2019-05-05T21:30:25.290Z,56.07
2019-05-05T21:32:57.449Z,58.28
2019-05-05T21:35:27.262Z,59.34
2019-05-05T21:37:56.011Z,59.73
2019-05-05T21:40:26.408Z,61.23
2019-05-05T21:42:55.412Z,61.43
2019-05-05T21:45:24.663Z,61.91
2019-05-05T21:47:55.000Z,62.54
2019-05-05T21:50:30.083Z,62.54
2019-05-05T21:53:08.387Z,63.42
2019-05-05T21:55:43.940Z,64.27
2019-05-05T21:58:24.720Z,64.57
2019-05-05T22:01:15.441Z,63.88
2019-05-05T22:03:45.012Z,65.44
2019-05-05T22:06:14.601Z,65.44
2019-05-05T22:08:44.594Z,64.76
2019-05-05T22:11:14.797Z,64.94
2019-05-05T22:13:44.351Z,64.94
2019-05-05T22:16:13.852Z,67.26
2019-05-05T22:18:44.650Z,67.47
2019-05-05T22:21:35.646Z,69.00
2019-05-05T22:24:18.496Z,68.49
2019-05-05T22:26:47.795Z,68.49
2019-05-05T22:29:17.596Z,69.18
2019-05-05T22:31:46.824Z,69.11
2019-05-05T22:34:18.977Z,69.11
2019-05-05T22:36:48.110Z,68.98
2019-05-05T22:39:17.347Z,68.37
2019-05-05T22:41:46.448Z,67.58
2019-05-05T22:44:15.729Z,66.94
2019-05-05T22:46:43.898Z,67.76
2019-05-05T22:49:14.726Z,68.26
2019-05-05T22:51:44.762Z,68.70
2019-05-05T22:54:14.964Z,70.28
2019-05-05T22:56:44.801Z,70.16
2019-05-05T22:59:14.114Z,69.80
2019-05-05T23:01:42.993Z,68.73
2019-05-05T23:04:46.505Z,68.71
2019-05-05T23:07:31.930Z,69.16
2019-05-05T23:10:01.059Z,68.50
2019-05-05T23:12:30.456Z,69.63
2019-05-05T23:15:00.749Z,70.13
2019-05-05T23:17:43.782Z,69.92
2019-05-05T23:21:11.116Z,69.28
2019-05-05T23:23:55.821Z,69.59
2019-05-05T23:26:24.598Z,67.94
2019-05-05T23:28:53.780Z,68.13
2019-05-05T23:31:24.131Z,68.13
2019-05-05T23:33:54.836Z,68.10
2019-05-05T23:36:26.623Z,68.25
2019-05-05T23:38:56.857Z,69.28
2019-05-05T23:41:26.800Z,69.28
2019-05-05T23:43:54.900Z,70.10
2019-05-05T23:46:25.158Z,70.30
2019-05-05T23:48:55.538Z,71.03
2019-05-05T23:51:24.501Z,71.60
2019-05-05T23:53:55.097Z,71.99
2019-05-05T23:56:26.694Z,72.41
2019-05-05T23:58:55.094Z,72.31
